createdAt,value
2022-11-16T00:01:30.541Z,15.86
2022-11-16T00:03:59.769Z,15.85
2022-11-16T00:06:27.888Z,15.85
2022-11-16T00:09:19.651Z,15.85
2022-11-16T00:11:52.721Z,15.82
2022-11-16T00:14:21.246Z,15.82
2022-11-16T00:16:48.259Z,15.82
2022-11-16T00:19:15.187Z,15.82
2022-11-16T00:21:42.385Z,15.83
2022-11-16T00:24:16.035Z,15.83
2022-11-16T00:26:43.257Z,15.81
2022-11-16T00:29:15.745Z,15.81
2022-11-16T00:31:44.552Z,15.80
2022-11-16T00:34:11.419Z,15.79
2022-11-16T00:36:38.281Z,15.79
2022-11-16T00:39:05.391Z,15.78
2022-11-16T00:41:32.169Z,15.76
2022-11-16T00:43:58.979Z,15.75
2022-11-16T00:46:25.772Z,15.73
2022-11-16T00:48:52.586Z,15.71
2022-11-16T00:51:25.442Z,15.69
2022-11-16T00:53:52.215Z,15.66
2022-11-16T00:56:19.015Z,15.63
2022-11-16T00:58:45.825Z,15.63
2022-11-16T01:01:13.049Z,15.61
2022-11-16T01:03:40.104Z,15.59
2022-11-16T01:06:10.717Z,15.58
2022-11-16T01:08:39.436Z,15.55
2022-11-16T01:11:26.815Z,15.54
2022-11-16T01:13:54.669Z,15.51
2022-11-16T01:16:23.643Z,15.50
2022-11-16T01:18:53.616Z,15.47
2022-11-16T01:21:21.844Z,15.47
2022-11-16T01:23:48.810Z,15.46
2022-11-16T01:26:15.649Z,15.44
2022-11-16T01:28:42.420Z,15.41
2022-11-16T01:31:10.367Z,15.40
2022-11-16T01:33:38.005Z,15.39
2022-11-16T01:36:14.548Z,15.39
2022-11-16T01:38:46.318Z,15.38
2022-11-16T01:41:23.937Z,15.37
2022-11-16T01:43:59.874Z,15.36
2022-11-16T01:46:28.231Z,15.35
2022-11-16T01:49:04.527Z,15.35
2022-11-16T01:51:32.764Z,15.34
2022-11-16T01:54:01.845Z,15.32
2022-11-16T01:56:31.683Z,15.32
2022-11-16T01:58:58.653Z,15.32
2022-11-16T02:01:25.490Z,15.30
2022-11-16T02:03:52.313Z,15.29
2022-11-16T02:06:32.414Z,15.29
2022-11-16T02:09:59.381Z,15.24
2022-11-16T02:12:49.001Z,15.20
2022-11-16T02:15:30.201Z,15.18
2022-11-16T02:18:44.097Z,15.15
2022-11-16T02:21:36.293Z,15.14
2022-11-16T02:24:42.547Z,15.10
2022-11-16T02:28:11.432Z,15.10
2022-11-16T02:30:44.789Z,15.10
2022-11-16T02:33:21.192Z,15.12
2022-11-16T02:35:52.676Z,15.13
2022-11-16T02:38:31.993Z,15.17
2022-11-16T02:41:06.485Z,15.15
2022-11-16T02:43:42.856Z,15.16
2022-11-16T02:46:18.851Z,15.15
2022-11-16T02:48:50.527Z,15.13
2022-11-16T02:51:19.482Z,15.12
2022-11-16T02:54:12.738Z,15.11
2022-11-16T02:57:04.726Z,15.11
2022-11-16T02:59:49.013Z,15.11
2022-11-16T03:02:25.497Z,15.10
2022-11-16T03:05:31.821Z,15.10
2022-11-16T03:08:33.996Z,15.08
2022-11-16T03:11:25.377Z,15.10
2022-11-16T03:14:00.015Z,15.08
2022-11-16T03:16:32.502Z,15.06
2022-11-16T03:19:03.241Z,15.05
2022-11-16T03:21:50.588Z,15.03
2022-11-16T03:24:17.620Z,15.00
2022-11-16T03:27:18.314Z,14.97
2022-11-16T03:30:06.042Z,14.91
2022-11-16T03:32:55.081Z,14.87
2022-11-16T03:35:24.806Z,14.83
2022-11-16T03:37:55.478Z,14.83
2022-11-16T03:40:24.627Z,14.79
2022-11-16T03:42:52.167Z,14.75
2022-11-16T03:45:19.966Z,14.72
2022-11-16T03:47:46.862Z,14.68
2022-11-16T03:50:13.751Z,14.66
2022-11-16T03:52:41.289Z,14.64
2022-11-16T03:55:08.608Z,14.62
2022-11-16T03:57:35.359Z,14.63
2022-11-16T04:00:02.467Z,14.58
2022-11-16T04:02:29.256Z,14.54
2022-11-16T04:05:14.420Z,14.50
2022-11-16T04:07:59.729Z,14.45
2022-11-16T04:10:44.787Z,14.38
2022-11-16T04:13:32.277Z,14.33
2022-11-16T04:16:17.904Z,14.27
2022-11-16T04:19:03.075Z,14.21
2022-11-16T04:22:02.779Z,14.17
2022-11-16T04:24:35.949Z,14.13
2022-11-16T04:27:25.888Z,14.13
2022-11-16T04:29:54.220Z,14.11
2022-11-16T04:32:39.359Z,14.10
2022-11-16T04:35:24.565Z,14.08
2022-11-16T04:37:53.240Z,14.04
2022-11-16T04:40:26.352Z,14.03
2022-11-16T04:43:01.303Z,14.01
2022-11-16T04:45:47.025Z,13.96
2022-11-16T04:48:15.914Z,13.92
2022-11-16T04:50:43.657Z,13.89
2022-11-16T04:53:10.877Z,13.86
2022-11-16T04:55:37.824Z,13.81
2022-11-16T04:58:05.381Z,13.77
2022-11-16T05:00:32.733Z,13.74
2022-11-16T05:03:01.588Z,13.70
2022-11-16T05:05:28.792Z,13.68
2022-11-16T05:07:55.613Z,13.65
2022-11-16T05:10:22.500Z,13.62
2022-11-16T05:12:49.240Z,13.58
2022-11-16T05:15:17.607Z,13.56
2022-11-16T05:17:44.450Z,13.54
2022-11-16T05:20:30.214Z,13.48
2022-11-16T05:22:58.260Z,13.42
2022-11-16T05:25:25.487Z,13.39
2022-11-16T05:27:52.270Z,13.36
2022-11-16T05:30:19.124Z,13.33
2022-11-16T05:32:46.157Z,13.32
2022-11-16T05:35:12.914Z,13.29
2022-11-16T05:37:39.745Z,13.26
2022-11-16T05:40:07.469Z,13.25
2022-11-16T05:42:34.431Z,13.25
2022-11-16T05:45:01.268Z,13.22
2022-11-16T05:47:28.177Z,13.18
2022-11-16T05:49:54.938Z,13.14
2022-11-16T05:52:21.709Z,13.10
2022-11-16T05:54:48.477Z,13.06
2022-11-16T05:57:15.367Z,13.03
2022-11-16T05:59:42.529Z,12.99
2022-11-16T06:02:09.288Z,12.97
2022-11-16T06:04:36.044Z,12.94
2022-11-16T06:07:02.915Z,12.91
2022-11-16T06:09:29.772Z,12.94
2022-11-16T06:11:56.552Z,12.95
2022-11-16T06:14:23.515Z,12.94
2022-11-16T06:16:50.277Z,12.92
2022-11-16T06:19:17.037Z,12.91
2022-11-16T06:21:43.801Z,12.90
2022-11-16T06:24:10.611Z,12.90
2022-11-16T06:26:37.452Z,12.89
2022-11-16T06:29:04.797Z,12.86
2022-11-16T06:31:31.682Z,12.82
2022-11-16T06:33:58.515Z,12.76
2022-11-16T06:36:25.309Z,12.72
2022-11-16T06:38:52.139Z,12.70
2022-11-16T06:41:19.348Z,12.69
2022-11-16T06:43:46.294Z,12.67
2022-11-16T06:46:13.269Z,12.67
2022-11-16T06:48:40.080Z,12.64
2022-11-16T06:51:06.923Z,12.63
2022-11-16T06:53:34.185Z,12.63
2022-11-16T06:56:05.644Z,12.61
2022-11-16T06:58:33.380Z,12.60
2022-11-16T07:01:11.845Z,12.57
2022-11-16T07:03:39.104Z,12.56
2022-11-16T07:06:11.119Z,12.56
2022-11-16T07:08:38.548Z,12.54
2022-11-16T07:11:07.550Z,12.53
2022-11-16T07:13:36.243Z,12.53
2022-11-16T07:16:08.579Z,12.53
2022-11-16T07:18:37.643Z,12.52
2022-11-16T07:21:08.659Z,12.50
2022-11-16T07:23:36.520Z,12.49
2022-11-16T07:26:05.809Z,12.48
2022-11-16T07:28:33.589Z,12.46
2022-11-16T07:31:06.422Z,12.44
2022-11-16T07:33:34.024Z,12.41
2022-11-16T07:36:10.403Z,12.40
2022-11-16T07:38:37.398Z,12.37
2022-11-16T07:41:11.232Z,12.36
2022-11-16T07:43:38.075Z,12.31
2022-11-16T07:46:45.959Z,12.31
2022-11-16T07:49:00.407Z,12.28
2022-11-16T07:51:27.264Z,12.29
2022-11-16T07:53:55.902Z,12.29
2022-11-16T07:56:22.985Z,12.30
2022-11-16T07:58:49.767Z,12.29
2022-11-16T08:01:18.578Z,12.27
2022-11-16T08:03:46.313Z,12.26
2022-11-16T08:06:26.751Z,12.27
2022-11-16T08:08:57.975Z,12.24
2022-11-16T08:11:26.135Z,12.23
2022-11-16T08:13:53.038Z,12.24
2022-11-16T08:16:22.298Z,12.25
2022-11-16T08:18:49.193Z,12.24
2022-11-16T08:21:17.873Z,12.27
2022-11-16T08:23:45.254Z,12.27
2022-11-16T08:26:18.775Z,12.27
2022-11-16T08:28:48.056Z,12.27
2022-11-16T08:31:21.530Z,12.26
2022-11-16T08:33:48.304Z,12.22
2022-11-16T08:36:17.643Z,12.24
2022-11-16T08:38:49.734Z,12.24
2022-11-16T08:41:17.855Z,12.23
2022-11-16T08:43:46.989Z,12.22
2022-11-16T08:46:14.085Z,12.22
2022-11-16T08:48:41.263Z,12.21
2022-11-16T08:51:20.590Z,12.22
2022-11-16T08:53:49.308Z,12.22
2022-11-16T08:56:18.402Z,12.25
2022-11-16T08:58:51.374Z,12.22
2022-11-16T09:01:23.981Z,12.20
2022-11-16T09:03:52.185Z,12.18
2022-11-16T09:06:19.216Z,12.18
2022-11-16T09:08:46.891Z,12.16
2022-11-16T09:11:18.316Z,12.16
2022-11-16T09:13:47.834Z,12.15
2022-11-16T09:16:16.564Z,12.14
2022-11-16T09:18:45.548Z,12.15
2022-11-16T09:21:16.116Z,12.18
2022-11-16T09:23:42.862Z,12.20
2022-11-16T09:26:09.659Z,12.21
2022-11-16T09:28:36.749Z,12.20
2022-11-16T09:31:05.889Z,12.20
2022-11-16T09:33:34.307Z,12.21
2022-11-16T09:36:07.841Z,12.22
2022-11-16T09:42:15.728Z,12.21
2022-11-16T09:45:04.554Z,12.19
2022-11-16T09:47:40.840Z,12.20
2022-11-16T09:50:39.289Z,12.28
2022-11-16T09:53:53.028Z,12.29
2022-11-16T09:56:23.968Z,12.30
2022-11-16T09:59:02.873Z,12.33
2022-11-16T10:01:48.803Z,12.35
2022-11-16T10:04:29.133Z,12.35
2022-11-16T10:07:22.650Z,12.35
2022-11-16T10:09:49.863Z,12.37
2022-11-16T10:12:35.524Z,12.39
2022-11-16T10:15:06.611Z,12.38
2022-11-16T10:18:02.422Z,12.37
2022-11-16T10:21:12.883Z,12.35
2022-11-16T10:23:57.532Z,12.37
2022-11-16T10:26:37.935Z,12.30
2022-11-16T10:29:35.112Z,12.30
2022-11-16T10:32:29.721Z,12.29
2022-11-16T10:35:09.091Z,12.30
2022-11-16T10:37:41.360Z,12.32
2022-11-16T10:40:23.145Z,12.32
2022-11-16T10:43:00.382Z,12.35
2022-11-16T10:45:45.992Z,12.36
2022-11-16T10:48:58.413Z,12.35
2022-11-16T10:51:25.209Z,12.33
2022-11-16T10:53:53.090Z,12.36
2022-11-16T10:56:28.751Z,12.38
2022-11-16T10:59:02.172Z,12.37
2022-11-16T11:01:37.658Z,12.39
2022-11-16T11:04:18.564Z,12.41
2022-11-16T11:06:48.887Z,12.43
2022-11-16T11:09:28.738Z,12.44
2022-11-16T11:12:22.629Z,12.45
2022-11-16T11:15:26.335Z,12.41
2022-11-16T11:18:15.498Z,12.40
2022-11-16T11:20:46.900Z,12.37
2022-11-16T11:23:22.134Z,12.37
2022-11-16T11:25:57.787Z,12.35
2022-11-16T11:28:31.661Z,12.33
2022-11-16T11:31:25.953Z,12.31
2022-11-16T11:33:57.713Z,12.30
2022-11-16T11:36:34.088Z,12.29
2022-11-16T11:39:21.101Z,12.27
2022-11-16T11:42:19.627Z,12.29
2022-11-16T11:44:57.520Z,12.30
2022-11-16T11:48:05.104Z,12.28
2022-11-16T11:50:44.785Z,12.24
2022-11-16T11:53:38.948Z,12.20
2022-11-16T11:56:06.633Z,12.19
2022-11-16T11:58:37.342Z,12.22
2022-11-16T12:01:25.639Z,12.20
2022-11-16T12:04:22.145Z,12.18
2022-11-16T12:07:03.617Z,12.19
2022-11-16T12:09:53.199Z,12.16
2022-11-16T12:12:56.701Z,12.14
2022-11-16T12:15:35.731Z,12.15
2022-11-16T12:18:14.157Z,12.13
2022-11-16T12:21:00.102Z,12.13
2022-11-16T12:24:03.919Z,12.08
2022-11-16T12:27:00.439Z,12.06
2022-11-16T12:29:40.438Z,12.03
2022-11-16T12:33:02.057Z,12.01
2022-11-16T12:36:36.387Z,11.99
2022-11-16T12:39:28.908Z,12.01
2022-11-16T12:42:34.741Z,12.00
2022-11-16T12:45:34.037Z,11.98
2022-11-16T12:48:31.995Z,11.99
2022-11-16T12:51:11.600Z,11.99
2022-11-16T12:54:06.161Z,11.97
2022-11-16T12:56:48.667Z,11.96
2022-11-16T12:59:49.045Z,11.92
2022-11-16T13:03:16.763Z,11.91
2022-11-16T13:05:53.770Z,11.90
2022-11-16T13:08:49.206Z,11.91
2022-11-16T13:11:21.907Z,11.91
2022-11-16T13:13:56.062Z,11.92
2022-11-16T13:16:24.700Z,11.92
2022-11-16T13:18:53.919Z,11.92
2022-11-16T13:21:47.904Z,11.94
2022-11-16T13:24:54.619Z,11.94
2022-11-16T13:27:49.871Z,11.95
2022-11-16T13:30:26.013Z,11.95
2022-11-16T13:33:13.809Z,11.95
2022-11-16T13:35:40.560Z,11.96
2022-11-16T13:38:13.724Z,11.96
2022-11-16T13:40:41.256Z,11.94
2022-11-16T13:43:10.934Z,11.98
2022-11-16T13:45:49.520Z,12.02
2022-11-16T13:48:21.557Z,12.03
2022-11-16T13:50:56.039Z,12.04
2022-11-16T13:56:15.937Z,12.00
2022-11-16T13:59:00.929Z,11.98
2022-11-16T14:02:28.376Z,11.91
2022-11-16T14:05:01.974Z,11.91
2022-11-16T14:07:46.371Z,11.87
2022-11-16T14:10:33.262Z,11.83
2022-11-16T14:13:05.128Z,11.82
2022-11-16T14:15:34.032Z,11.84
2022-11-16T14:18:32.117Z,11.85
2022-11-16T14:21:08.442Z,11.85
2022-11-16T14:24:02.851Z,11.83
2022-11-16T14:27:09.963Z,11.77
2022-11-16T14:30:09.932Z,11.76
2022-11-16T14:32:45.961Z,11.76
2022-11-16T14:35:40.257Z,11.73
2022-11-16T14:38:21.927Z,11.75
2022-11-16T14:40:57.783Z,11.75
2022-11-16T14:43:54.869Z,11.75
2022-11-16T14:46:35.656Z,11.75
2022-11-16T14:49:03.032Z,11.75
2022-11-16T14:51:34.964Z,11.75
2022-11-16T14:54:39.112Z,11.76
2022-11-16T14:57:13.628Z,11.76
2022-11-16T14:59:40.378Z,11.76
2022-11-16T15:02:27.160Z,11.78
2022-11-16T15:04:54.664Z,11.76
2022-11-16T15:07:26.248Z,11.77
2022-11-16T15:09:56.585Z,11.75
2022-11-16T15:12:42.245Z,11.73
2022-11-16T15:15:11.762Z,11.72
2022-11-16T15:17:42.162Z,11.73
2022-11-16T15:20:22.105Z,11.75
2022-11-16T15:22:55.329Z,11.76
2022-11-16T15:25:30.499Z,11.75
2022-11-16T15:28:20.026Z,11.72
2022-11-16T15:30:51.054Z,11.71
2022-11-16T15:33:33.571Z,11.73
2022-11-16T15:36:00.650Z,11.73
2022-11-16T15:38:32.769Z,11.75
2022-11-16T15:41:04.841Z,11.75
2022-11-16T15:43:45.211Z,11.75
2022-11-16T15:46:17.760Z,11.75
2022-11-16T15:48:45.534Z,11.77
2022-11-16T15:51:24.260Z,11.77
2022-11-16T15:53:54.361Z,11.77
2022-11-16T15:56:27.082Z,11.78
2022-11-16T15:59:02.466Z,11.76
2022-11-16T16:01:30.424Z,11.76
2022-11-16T16:04:05.017Z,11.79
2022-11-16T16:06:53.228Z,11.77
2022-11-16T16:09:39.680Z,11.78
2022-11-16T16:12:23.604Z,11.77
2022-11-16T16:14:52.375Z,11.74
2022-11-16T16:17:30.565Z,11.76
2022-11-16T16:20:04.047Z,11.74
2022-11-16T16:22:34.527Z,11.73
2022-11-16T16:25:01.962Z,11.73
2022-11-16T16:27:31.620Z,11.74
2022-11-16T16:30:05.352Z,11.74
2022-11-16T16:32:37.722Z,11.71
2022-11-16T16:35:08.424Z,11.69
2022-11-16T16:37:35.988Z,11.68
2022-11-16T16:40:03.480Z,11.67
2022-11-16T16:42:30.287Z,11.67
2022-11-16T16:44:59.929Z,11.67
2022-11-16T16:47:26.706Z,11.68
2022-11-16T16:49:53.604Z,11.69
2022-11-16T16:52:20.405Z,11.71
2022-11-16T16:54:47.207Z,11.71
2022-11-16T16:57:15.774Z,11.71
2022-11-16T16:59:45.287Z,11.71
2022-11-16T17:02:14.896Z,11.72
2022-11-16T17:04:43.870Z,11.71
2022-11-16T17:07:10.766Z,11.71
2022-11-16T17:09:37.543Z,11.71
2022-11-16T17:12:04.554Z,11.73
2022-11-16T17:14:31.327Z,11.71
2022-11-16T17:16:58.136Z,11.71
2022-11-16T17:19:25.039Z,11.73
2022-11-16T17:21:52.340Z,11.74
2022-11-16T17:24:19.303Z,11.72
2022-11-16T17:26:48.583Z,11.72
2022-11-16T17:29:15.474Z,11.72
2022-11-16T17:31:44.070Z,11.72
2022-11-16T17:34:13.699Z,11.71
2022-11-16T17:36:41.938Z,11.69
2022-11-16T17:39:09.000Z,11.69
2022-11-16T17:41:35.906Z,11.69
2022-11-16T17:44:03.701Z,11.68
2022-11-16T17:46:30.473Z,11.68
2022-11-16T17:48:57.310Z,11.68
2022-11-16T17:51:25.227Z,11.66
2022-11-16T17:53:52.510Z,11.66
2022-11-16T17:56:23.200Z,11.69
2022-11-16T17:58:51.530Z,11.67
2022-11-16T18:01:19.198Z,11.69
2022-11-16T18:03:46.076Z,11.67
2022-11-16T18:06:19.463Z,11.66
2022-11-16T18:08:46.693Z,11.65
2022-11-16T18:11:19.917Z,11.65
2022-11-16T18:13:47.635Z,11.63
2022-11-16T18:16:17.783Z,11.63
2022-11-16T18:18:46.721Z,11.63
2022-11-16T18:21:20.466Z,11.64
2022-11-16T18:23:47.911Z,11.57
2022-11-16T18:26:17.668Z,11.59
2022-11-16T18:28:48.667Z,11.60
2022-11-16T18:31:18.114Z,11.61
2022-11-16T18:33:45.307Z,11.61
2022-11-16T18:36:12.872Z,11.63
2022-11-16T18:38:39.697Z,11.62
2022-11-16T18:41:16.616Z,11.64
2022-11-16T18:43:59.675Z,11.65
2022-11-16T18:46:29.398Z,11.66
2022-11-16T18:48:57.088Z,11.63
2022-11-16T18:51:26.950Z,11.64
2022-11-16T18:53:54.112Z,11.64
2022-11-16T18:56:21.095Z,11.62
2022-11-16T18:58:51.000Z,11.64
2022-11-16T19:01:25.506Z,11.64
2022-11-16T19:03:54.649Z,11.65
2022-11-16T19:06:23.025Z,11.66
2022-11-16T19:09:06.187Z,11.67
2022-11-16T19:11:32.967Z,11.68
2022-11-16T19:14:07.582Z,11.69
2022-11-16T19:16:34.589Z,11.70
2022-11-16T19:19:01.502Z,11.72
2022-11-16T19:21:28.624Z,11.71
2022-11-16T19:23:57.021Z,11.67
2022-11-16T19:26:27.121Z,11.67
2022-11-16T19:28:54.611Z,11.66
2022-11-16T19:31:28.735Z,11.65
2022-11-16T19:34:15.837Z,11.64
2022-11-16T19:36:42.581Z,11.61
2022-11-16T19:39:09.390Z,11.62
2022-11-16T19:41:36.213Z,11.62
2022-11-16T19:44:03.142Z,11.62
2022-11-16T19:46:33.026Z,11.61
2022-11-16T19:49:00.312Z,11.59
2022-11-16T19:51:33.301Z,11.59
2022-11-16T19:54:01.413Z,11.59
2022-11-16T19:56:29.107Z,11.56
2022-11-16T19:58:55.879Z,11.57
2022-11-16T20:01:27.699Z,11.55
2022-11-16T20:03:57.563Z,11.53
2022-11-16T20:06:28.990Z,11.52
2022-11-16T20:09:00.389Z,11.51
2022-11-16T20:11:33.983Z,11.52
2022-11-16T20:14:02.328Z,11.47
2022-11-16T20:16:38.439Z,11.47
2022-11-16T20:19:08.461Z,11.46
2022-11-16T20:21:41.213Z,11.45
2022-11-16T20:24:14.651Z,11.44
2022-11-16T20:26:45.033Z,11.42
2022-11-16T20:29:13.774Z,11.43
2022-11-16T20:31:42.756Z,11.42
2022-11-16T20:34:14.109Z,11.42
2022-11-16T20:36:43.684Z,11.41
2022-11-16T20:39:17.110Z,11.40
2022-11-16T20:41:44.358Z,11.40
2022-11-16T20:44:19.408Z,11.39
2022-11-16T20:46:46.208Z,11.39
2022-11-16T20:49:13.089Z,11.40
2022-11-16T20:51:40.388Z,11.40
2022-11-16T20:54:07.313Z,11.40
2022-11-16T20:56:34.308Z,11.39
2022-11-16T20:59:01.958Z,11.40
2022-11-16T21:01:31.379Z,11.39
2022-11-16T21:04:01.547Z,11.38
2022-11-16T21:06:28.666Z,11.37
2022-11-16T21:08:56.208Z,11.39
2022-11-16T21:11:30.384Z,11.39
2022-11-16T21:14:16.100Z,11.37
2022-11-16T21:16:43.388Z,11.37
2022-11-16T21:19:11.032Z,11.35
2022-11-16T21:21:40.331Z,11.35
2022-11-16T21:24:08.981Z,11.35
2022-11-16T21:26:37.143Z,11.33
2022-11-16T21:29:04.552Z,11.32
2022-11-16T21:31:36.390Z,11.34
2022-11-16T21:34:03.637Z,11.34
2022-11-16T21:36:32.104Z,11.35
2022-11-16T21:38:59.657Z,11.35
2022-11-16T21:41:26.893Z,11.34
2022-11-16T21:43:53.926Z,11.34
2022-11-16T21:46:26.100Z,11.34
2022-11-16T21:48:55.361Z,11.33
2022-11-16T21:51:25.190Z,11.35
2022-11-16T21:53:52.536Z,11.34
2022-11-16T21:56:22.782Z,11.34
2022-11-16T21:58:52.578Z,11.35
2022-11-16T22:01:20.222Z,11.36
2022-11-16T22:03:48.361Z,11.36
2022-11-16T22:06:35.206Z,11.37
2022-11-16T22:09:02.517Z,11.35
2022-11-16T22:11:29.311Z,11.34
2022-11-16T22:13:56.086Z,11.32
2022-11-16T22:16:23.358Z,11.32
2022-11-16T22:18:50.451Z,11.30
2022-11-16T22:21:17.413Z,11.30
2022-11-16T22:23:44.233Z,11.29
2022-11-16T22:26:13.020Z,11.28
2022-11-16T22:28:40.306Z,11.27
2022-11-16T22:31:13.237Z,11.27
2022-11-16T22:33:40.633Z,11.27
2022-11-16T22:36:09.474Z,11.28
2022-11-16T22:38:36.624Z,11.26
2022-11-16T22:41:03.599Z,11.26
2022-11-16T22:43:31.786Z,11.27
2022-11-16T22:46:05.069Z,11.28
2022-11-16T22:48:38.356Z,11.27
2022-11-16T22:51:17.952Z,11.27
2022-11-16T22:53:44.749Z,11.25
2022-11-16T22:56:11.700Z,11.25
2022-11-16T22:58:39.124Z,11.26
2022-11-16T23:01:08.220Z,11.25
2022-11-16T23:03:36.154Z,11.26
2022-11-16T23:06:04.179Z,11.25
2022-11-16T23:08:31.693Z,11.24
2022-11-16T23:11:28.661Z,11.25
2022-11-16T23:14:14.257Z,11.22
2022-11-16T23:16:42.215Z,11.20
2022-11-16T23:19:29.897Z,11.19
2022-11-16T23:22:16.027Z,11.18
2022-11-16T23:25:02.213Z,11.16
2022-11-16T23:27:56.984Z,11.14
2022-11-16T23:30:24.410Z,11.14
2022-11-16T23:32:51.645Z,11.15
2022-11-16T23:35:18.804Z,11.15
2022-11-16T23:38:04.176Z,11.17
2022-11-16T23:40:36.056Z,11.16
2022-11-16T23:43:39.031Z,11.15
2022-11-16T23:46:05.901Z,11.13
2022-11-16T23:48:32.663Z,11.11
2022-11-16T23:50:59.421Z,11.10
2022-11-16T23:53:26.199Z,11.10
2022-11-16T23:55:52.971Z,11.11
2022-11-16T23:58:19.768Z,11.10
